Eizo Maru — JD2944 — position and weather

sailwx.info

Track history (hours):
 
Tides and Currents Weather Stations Pressure Air Temp Water Temp Dewpoint Dewpoint Depression Visibility Wind Speed Wind Dir Waves Ship Positions

Eizo Maru

Last reported at 2015-Jul-28 21:28 UTC. Time now 2015-Jul-28 21:50 UTC.
Position N 35°33' E 140°01'.

Length 80 m; draft 4 m.

Type: Tanker. MMSI: 431000976.

Date/timePositionNaut miles runAvg speedWind from/ knotsBaromVisibWave heightAir tempDewpointWater temp
2015-Jul-28 21:28N 35°33' E 140°01'0 0.0
2015-Jul-28 20:16N 35°33' E 140°01'0 0.0
2015-Jul-28 19:16N 35°33' E 140°01'0 0.0
2015-Jul-28 18:25N 35°33' E 140°01'0 0.0
2015-Jul-28 17:25N 35°33' E 140°01'0 0.0
2015-Jul-28 16:31N 35°33' E 140°01'0 0.0
2015-Jul-28 15:22N 35°33' E 140°01'0 0.1
2015-Jul-28 14:25N 35°34' E 140°01'3 3.2
2015-Jul-28 13:32N 35°31' E 140°02'0 0.0
2015-Jul-28 12:32N 35°31' E 140°02'0 0.0
2015-Jul-28 11:26N 35°31' E 140°02'0 0.0
2015-Jul-28 10:32N 35°31' E 140°02'0 0.0
2015-Jul-28 09:32N 35°31' E 140°02'1 0.7
2015-Jul-28 08:27N 35°31' E 140°02'2 2.0
2015-Jul-28 07:33N 35°32' E 140°03'0 0.1
2015-Jul-28 06:33N 35°32' E 140°03'0 0.0
2015-Jul-28 05:33N 35°32' E 140°03'0 0.0
2015-Jul-28 04:33N 35°32' E 140°03'2 1.6
2015-Jul-28 03:33N 35°32' E 140°02'0 0.2
2015-Jul-28 02:29N 35°32' E 140°01'0 0.1
2015-Jul-28 01:32N 35°32' E 140°01'0 0.0
2015-Jul-28 00:26N 35°32' E 140°01'0 0.0
2015-Jul-27 23:14N 35°32' E 140°01'0 0.0
2015-Jul-27 22:32N 35°32' E 140°01'0 0.1
2015-Jul-27 21:32N 35°32' E 140°01'0 0.0
2015-Jul-27 20:26N 35°32' E 140°01'0 0.0
2015-Jul-27 19:26N 35°32' E 140°01'0 0.0
2015-Jul-27 18:14N 35°32' E 140°01'0 0.0
2015-Jul-27 16:32N 35°32' E 140°01'0 0.0
2015-Jul-27 15:32N 35°32' E 140°01'6 6.4
2015-Jul-27 14:33N 35°30' E 139°55'1313.1
2015-Jul-27 13:33N 35°20' E 139°44'1212.2
2015-Jul-27 12:33N 35°07' E 139°46'63 9.0
2015-Jul-27 05:33N 35°39' E 140°53'4013.3
2015-Jul-27 02:31N 36°19' E 140°60'1313.6
2015-Jul-27 01:33N 36°32' E 141°01'1413.9
2015-Jul-27 00:33N 36°46' E 141°03'  
2015-Jul-22 06:33N 34°35' E 135°11'8 7.6
2015-Jul-22 05:33N 34°33' E 135°20'5 5.0
2015-Jul-22 04:33N 34°33' E 135°26'0 0.0
2015-Jul-21 22:33N 34°33' E 135°26'4 3.7
2015-Jul-21 21:33N 34°33' E 135°21'6 6.3
2015-Jul-21 20:32N 34°29' E 135°14'1513.1
2015-Jul-21 19:22N 34°20' E 135°00'1012.2
2015-Jul-21 18:32N 34°10' E 135°00'  
Track history (hours):
 
Tides and Currents Weather Stations Pressure Air Temp Water Temp Dewpoint Dewpoint Depression Visibility Wind Speed Wind Dir Waves Ship Positions

Eizo Maru

Last reported at 2015-Jul-28 21:28 UTC. Time now 2015-Jul-28 21:50 UTC.
Position N 35°33' E 140°01'.

Length 80 m; draft 4 m.

Type: Tanker. MMSI: 431000976.

Date/timePositionNaut miles runAvg speedWind from/ knotsBaromVisibWave heightAir tempDewpointWater temp
2015-Jul-28 21:28N 35°33' E 140°01'0 0.0
2015-Jul-28 20:16N 35°33' E 140°01'0 0.0
2015-Jul-28 19:16N 35°33' E 140°01'0 0.0
2015-Jul-28 18:25N 35°33' E 140°01'0 0.0
2015-Jul-28 17:25N 35°33' E 140°01'0 0.0
2015-Jul-28 16:31N 35°33' E 140°01'0 0.0
2015-Jul-28 15:22N 35°33' E 140°01'0 0.1
2015-Jul-28 14:25N 35°34' E 140°01'3 3.2
2015-Jul-28 13:32N 35°31' E 140°02'0 0.0
2015-Jul-28 12:32N 35°31' E 140°02'0 0.0
2015-Jul-28 11:26N 35°31' E 140°02'0 0.0
2015-Jul-28 10:32N 35°31' E 140°02'0 0.0
2015-Jul-28 09:32N 35°31' E 140°02'1 0.7
2015-Jul-28 08:27N 35°31' E 140°02'2 2.0
2015-Jul-28 07:33N 35°32' E 140°03'0 0.1
2015-Jul-28 06:33N 35°32' E 140°03'0 0.0
2015-Jul-28 05:33N 35°32' E 140°03'0 0.0
2015-Jul-28 04:33N 35°32' E 140°03'2 1.6
2015-Jul-28 03:33N 35°32' E 140°02'0 0.2
2015-Jul-28 02:29N 35°32' E 140°01'0 0.1
2015-Jul-28 01:32N 35°32' E 140°01'0 0.0
2015-Jul-28 00:26N 35°32' E 140°01'0 0.0
2015-Jul-27 23:14N 35°32' E 140°01'0 0.0
2015-Jul-27 22:32N 35°32' E 140°01'0 0.1
2015-Jul-27 21:32N 35°32' E 140°01'0 0.0
2015-Jul-27 20:26N 35°32' E 140°01'0 0.0
2015-Jul-27 19:26N 35°32' E 140°01'0 0.0
2015-Jul-27 18:14N 35°32' E 140°01'0 0.0
2015-Jul-27 16:32N 35°32' E 140°01'0 0.0
2015-Jul-27 15:32N 35°32' E 140°01'6 6.4
2015-Jul-27 14:33N 35°30' E 139°55'1313.1
2015-Jul-27 13:33N 35°20' E 139°44'1212.2
2015-Jul-27 12:33N 35°07' E 139°46'63 9.0
2015-Jul-27 05:33N 35°39' E 140°53'4013.3
2015-Jul-27 02:31N 36°19' E 140°60'1313.6
2015-Jul-27 01:33N 36°32' E 141°01'1413.9
2015-Jul-27 00:33N 36°46' E 141°03'  
2015-Jul-22 06:33N 34°35' E 135°11'8 7.6
2015-Jul-22 05:33N 34°33' E 135°20'5 5.0
2015-Jul-22 04:33N 34°33' E 135°26'0 0.0
2015-Jul-21 22:33N 34°33' E 135°26'4 3.7
2015-Jul-21 21:33N 34°33' E 135°21'6 6.3
2015-Jul-21 20:32N 34°29' E 135°14'1513.1
2015-Jul-21 19:22N 34°20' E 135°00'1012.2
2015-Jul-21 18:32N 34°10' E 135°00'  

Dump ship's entire track history